Smooth Rock Falls, Canada
Current Conditions -  °F | °C
As of 7:00 AM on Sunday 21 Dec 2014 (Local Time) from CYYU Reporting Station
Overcast Overcast  
Wind Chill:   Ceiling: 1200
Heat Index: 18°   Visibility: 15mi
Dew Point: 16°   Wind: 7mph
Humidity: 93%   Direction: 170°S
Pressure: 30.2"   Gusts: NA
Location:  49.28°N, 81.63°W
Report Text: CYYU 211200Z 17006KT 15SM OVC012 M08/M09 A3020 RMK ST8 SLP246
Loading
Personal Weather Stations






























Interactive Weather Map New forecast layout! Learn more

10-Day Weather Forecast

Advertisements
Track Severe Weather on mobile